Time;durP1;ratioP1;P1;durP2;ratioP2;P2;SDS_P1;SDS_P2;PMS_P1;PMS_P2;Temp;Humidity;BMP_temperature;BMP_pressure;BME280_temperature;BME280_humidity;BME280_pressure;Samples;Min_cycle;Max_cycle;Signal;HPM_P1;HPM_P2
2023/12/17 00:00:59;;;;;;;11.52;4.30;;;10.00;99.90;;;;;;5128693;27;20088;-73
2023/12/17 00:03:26;;;;;;;11.55;4.82;;;10.00;99.90;;;;;;5126346;27;20491;-73
2023/12/17 00:05:52;;;;;;;9.40;4.35;;;10.00;99.90;;;;;;5105288;27;20039;-73
2023/12/17 00:08:20;;;;;;;16.05;5.32;;;10.00;99.90;;;;;;5113532;27;20042;-73
2023/12/17 00:10:46;;;;;;;9.45;4.00;;;9.90;99.90;;;;;;5098812;28;20035;-73
2023/12/17 00:13:12;;;;;;;11.23;4.30;;;10.00;99.90;;;;;;5113253;28;20092;-73
2023/12/17 00:15:38;;;;;;;10.63;4.95;;;9.90;99.90;;;;;;5114769;28;20040;-73
2023/12/17 00:18:05;;;;;;;11.77;4.55;;;9.90;99.90;;;;;;5098361;28;20042;-73
2023/12/17 00:20:31;;;;;;;13.63;5.22;;;9.90;99.90;;;;;;5149601;27;20151;-73
2023/12/17 00:22:57;;;;;;;9.55;4.63;;;9.90;99.90;;;;;;5148796;27;20496;-72
2023/12/17 00:25:22;;;;;;;9.25;4.45;;;10.00;99.90;;;;;;5114084;27;20035;-73
2023/12/17 00:27:48;;;;;;;8.75;3.63;;;10.00;99.90;;;;;;5148151;27;20040;-73
2023/12/17 00:30:14;;;;;;;15.38;4.22;;;10.10;99.90;;;;;;5115229;27;20032;-73
2023/12/17 00:32:39;;;;;;;11.25;4.63;;;10.20;99.90;;;;;;5149576;27;20032;-73
2023/12/17 00:35:05;;;;;;;12.50;4.50;;;10.10;99.90;;;;;;5113984;28;20039;-73
2023/12/17 00:37:31;;;;;;;10.85;4.40;;;10.00;99.90;;;;;;5098008;28;20047;-73
2023/12/17 00:39:56;;;;;;;12.73;4.80;;;10.00;99.90;;;;;;5096321;28;20039;-73
2023/12/17 00:42:22;;;;;;;10.10;4.18;;;10.00;99.90;;;;;;5114869;28;20044;-73
2023/12/17 00:44:48;;;;;;;12.75;4.85;;;10.00;99.90;;;;;;5147947;27;20039;-73
2023/12/17 00:47:13;;;;;;;11.02;3.97;;;10.00;99.90;;;;;;5097359;28;20077;-73
2023/12/17 00:49:39;;;;;;;11.07;4.82;;;10.00;99.90;;;;;;5113924;27;20040;-73
2023/12/17 00:52:05;;;;;;;7.72;3.47;;;10.00;99.90;;;;;;5114199;28;20032;-73
2023/12/17 00:54:30;;;;;;;11.00;4.32;;;10.00;99.90;;;;;;5147812;27;20487;-73
2023/12/17 00:56:56;;;;;;;5.47;2.25;;;10.10;99.90;;;;;;5146743;27;21236;-73
2023/12/17 00:59:21;;;;;;;8.80;4.13;;;10.00;99.90;;;;;;5103276;27;20220;-73
2023/12/17 01:01:47;;;;;;;7.85;3.70;;;10.00;99.90;;;;;;5136778;27;20047;-73
2023/12/17 01:04:13;;;;;;;11.55;4.13;;;10.00;99.90;;;;;;5131509;27;20036;-73
2023/12/17 01:06:38;;;;;;;11.30;4.32;;;10.00;99.90;;;;;;5131541;27;20039;-73
2023/12/17 01:09:04;;;;;;;9.10;4.40;;;10.00;99.90;;;;;;5096860;28;20467;-73
2023/12/17 01:11:30;;;;;;;9.45;4.03;;;10.00;99.90;;;;;;5130970;27;20407;-73
2023/12/17 01:13:55;;;;;;;12.38;5.05;;;10.00;99.90;;;;;;5131337;27;20046;-73
2023/12/17 01:16:21;;;;;;;13.55;4.82;;;10.00;99.90;;;;;;5131407;27;20043;-73
2023/12/17 01:18:46;;;;;;;8.15;4.32;;;9.90;99.90;;;;;;5145119;27;20039;-73
2023/12/17 01:21:12;;;;;;;11.15;5.03;;;9.90;99.90;;;;;;5097135;28;20457;-73
2023/12/17 01:23:38;;;;;;;15.73;5.03;;;9.90;99.90;;;;;;5097353;28;20036;-73
2023/12/17 01:26:04;;;;;;;9.52;4.50;;;9.80;99.90;;;;;;5112935;27;20031;-73
2023/12/17 01:28:30;;;;;;;10.40;5.82;;;9.80;99.90;;;;;;5097030;28;20040;-73
2023/12/17 01:30:55;;;;;;;9.95;4.57;;;9.90;99.90;;;;;;5096602;28;20042;-73
2023/12/17 01:33:21;;;;;;;6.65;2.75;;;9.90;99.90;;;;;;5131216;27;20586;-73
2023/12/17 01:35:46;;;;;;;11.15;4.55;;;9.90;99.90;;;;;;5148228;27;20130;-73
2023/12/17 01:38:12;;;;;;;10.13;3.78;;;10.00;99.90;;;;;;5146496;27;20071;-73
2023/12/17 01:40:39;;;;;;;10.23;4.15;;;10.00;99.90;;;;;;5111603;27;20046;-73
2023/12/17 01:43:08;;;;;;;13.90;4.57;;;10.00;99.90;;;;;;5096776;28;20031;-73
2023/12/17 01:45:34;;;;;;;8.63;3.65;;;10.00;99.90;;;;;;5096684;28;20039;-73
2023/12/17 01:48:01;;;;;;;12.80;4.55;;;10.00;99.90;;;;;;5146980;27;20047;-73
2023/12/17 01:50:27;;;;;;;10.90;4.13;;;10.00;99.90;;;;;;5095936;28;20093;-73
2023/12/17 01:52:54;;;;;;;10.98;4.60;;;10.00;99.90;;;;;;5095976;28;20084;-73
2023/12/17 01:55:19;;;;;;;8.52;3.05;;;10.00;99.90;;;;;;5113467;28;20036;-73
2023/12/17 01:57:45;;;;;;;8.90;4.13;;;10.00;99.90;;;;;;5130652;27;20043;-73
2023/12/17 02:00:12;;;;;;;12.55;4.38;;;10.10;99.90;;;;;;5110448;28;20061;-73
2023/12/17 02:02:37;;;;;;;9.05;3.45;;;10.10;99.90;;;;;;5113335;28;20039;-73
2023/12/17 02:05:05;;;;;;;13.13;4.90;;;10.10;99.90;;;;;;5147724;27;20046;-73
2023/12/17 02:07:32;;;;;;;8.18;3.58;;;10.10;99.90;;;;;;5147691;27;20206;-73
2023/12/17 02:09:58;;;;;;;10.98;3.90;;;10.00;99.90;;;;;;5128271;27;20044;-73
2023/12/17 02:12:29;;;;;;;6.85;2.83;;;10.10;99.90;;;;;;5096282;28;20062;-73
2023/12/17 02:14:54;;;;;;;6.57;3.13;;;10.10;99.90;;;;;;5096140;28;20047;-73
2023/12/17 02:17:30;;;;;;;8.35;3.35;;;10.20;99.90;;;;;;5112200;28;20050;-73
2023/12/17 02:19:56;;;;;;;10.85;4.00;;;10.20;99.90;;;;;;5144406;27;20491;-73
2023/12/17 02:22:23;;;;;;;12.63;4.28;;;10.10;99.90;;;;;;5096032;28;20038;-73
2023/12/17 02:24:53;;;;;;;12.93;4.30;;;10.10;99.90;;;;;;5146682;27;20501;-73
2023/12/17 02:27:23;;;;;;;11.23;4.07;;;10.00;99.90;;;;;;5096245;28;20552;-73
2023/12/17 02:29:50;;;;;;;8.48;3.88;;;10.10;99.90;;;;;;5145581;27;20503;-73
2023/12/17 02:32:17;;;;;;;10.10;4.10;;;10.00;99.90;;;;;;5147104;27;20043;-73
2023/12/17 02:34:42;;;;;;;10.80;4.07;;;10.10;99.90;;;;;;5129821;27;20126;-73
2023/12/17 02:37:08;;;;;;;8.35;3.83;;;10.10;99.90;;;;;;5129920;27;20143;-73
2023/12/17 02:39:34;;;;;;;8.95;4.45;;;10.10;99.90;;;;;;5112659;28;20100;-73
2023/12/17 02:41:59;;;;;;;8.80;3.58;;;10.10;99.90;;;;;;5094237;28;20400;-73
2023/12/17 02:44:25;;;;;;;10.02;3.60;;;10.20;99.90;;;;;;5112521;28;20035;-73
2023/12/17 02:46:51;;;;;;;9.25;3.67;;;10.20;99.90;;;;;;5095207;28;20429;-73
2023/12/17 02:49:17;;;;;;;8.68;3.65;;;10.20;99.90;;;;;;5129964;27;20146;-73
2023/12/17 02:51:43;;;;;;;8.70;3.70;;;10.20;99.90;;;;;;5094170;28;20066;-73
2023/12/17 02:54:08;;;;;;;11.15;4.18;;;10.20;99.90;;;;;;5146890;27;20047;-73
2023/12/17 02:56:38;;;;;;;11.27;4.18;;;10.20;99.90;;;;;;5129336;27;20373;-74
2023/12/17 02:59:11;;;;;;;13.48;5.10;;;10.10;99.90;;;;;;5146593;27;20066;-73
2023/12/17 03:01:39;;;;;;;9.00;3.42;;;10.10;99.90;;;;;;5125856;27;20544;-73
2023/12/17 03:04:05;;;;;;;13.57;4.40;;;10.10;99.90;;;;;;5146702;27;20075;-73
2023/12/17 03:06:31;;;;;;;7.40;3.35;;;10.10;99.90;;;;;;5111604;28;20078;-73
2023/12/17 03:08:57;;;;;;;12.55;4.15;;;10.00;99.90;;;;;;5146815;27;20042;-73
2023/12/17 03:11:22;;;;;;;13.20;4.32;;;10.10;99.90;;;;;;5128186;27;20036;-73
2023/12/17 03:13:48;;;;;;;11.18;4.30;;;10.10;99.90;;;;;;5112624;28;20048;-74
2023/12/17 03:16:14;;;;;;;11.77;4.93;;;10.00;99.90;;;;;;5094956;28;20039;-73
2023/12/17 03:18:39;;;;;;;7.35;3.35;;;10.00;99.90;;;;;;5112507;28;20040;-73
2023/12/17 03:21:07;;;;;;;12.13;4.57;;;10.10;99.90;;;;;;5094087;28;20032;-73
2023/12/17 03:23:35;;;;;;;12.20;4.45;;;10.10;99.90;;;;;;5129088;28;20036;-73
2023/12/17 03:26:03;;;;;;;9.45;3.97;;;10.10;99.90;;;;;;5094572;28;20035;-73
2023/12/17 03:28:28;;;;;;;12.98;4.00;;;10.10;99.90;;;;;;5094617;28;20044;-73
2023/12/17 03:30:54;;;;;;;14.43;4.75;;;10.10;99.90;;;;;;5129224;28;20052;-73
2023/12/17 03:33:20;;;;;;;9.88;3.97;;;10.00;99.90;;;;;;5127875;27;20403;-73
2023/12/17 03:35:46;;;;;;;10.63;4.93;;;9.90;99.90;;;;;;5111992;28;20073;-73
2023/12/17 03:38:12;;;;;;;13.15;4.80;;;10.00;99.90;;;;;;5095143;28;20131;-72
2023/12/17 03:40:38;;;;;;;10.18;4.60;;;10.00;99.90;;;;;;5091967;28;20086;-73
2023/12/17 03:43:04;;;;;;;10.65;4.20;;;10.00;99.90;;;;;;5127172;27;20059;-73
2023/12/17 03:45:31;;;;;;;12.20;4.72;;;10.20;99.90;;;;;;5095051;28;20056;-73
2023/12/17 03:47:57;;;;;;;10.35;4.18;;;10.10;99.90;;;;;;5095109;28;20038;-74
2023/12/17 03:50:23;;;;;;;9.80;3.47;;;10.10;99.90;;;;;;5095320;28;20391;-73
2023/12/17 03:52:49;;;;;;;14.82;4.63;;;10.10;99.90;;;;;;5109335;28;20031;-73
2023/12/17 03:55:14;;;;;;;12.77;4.80;;;10.10;99.90;;;;;;5111844;28;20405;-73
2023/12/17 03:57:41;;;;;;;11.63;4.40;;;10.00;99.90;;;;;;5095028;28;20074;-74
2023/12/17 04:00:10;;;;;;;8.98;3.78;;;10.00;99.90;;;;;;5094338;28;20505;-73
2023/12/17 04:02:36;;;;;;;12.32;4.82;;;10.00;99.90;;;;;;5109836;28;20044;-73
2023/12/17 04:05:02;;;;;;;12.00;3.88;;;10.10;99.90;;;;;;5110666;28;20031;-73
2023/12/17 04:07:29;;;;;;;13.55;5.18;;;10.20;99.90;;;;;;5094774;28;20399;-73
2023/12/17 04:09:56;;;;;;;4.78;2.33;;;10.10;99.90;;;;;;5112085;28;20066;-73
2023/12/17 04:12:21;;;;;;;11.07;4.00;;;10.30;99.90;;;;;;5128483;27;20086;-73
2023/12/17 04:14:47;;;;;;;9.20;3.15;;;10.20;99.90;;;;;;5127932;27;20046;-73
2023/12/17 04:17:12;;;;;;;11.32;4.38;;;10.20;99.90;;;;;;5112054;28;20039;-72
2023/12/17 04:19:38;;;;;;;11.25;4.32;;;10.10;99.90;;;;;;5145984;27;20089;-73
2023/12/17 04:22:04;;;;;;;12.60;6.28;;;10.20;99.90;;;;;;5128243;27;20040;-73
2023/12/17 04:24:29;;;;;;;12.48;4.15;;;10.10;99.90;;;;;;5113803;28;20171;-73
2023/12/17 04:26:55;;;;;;;12.10;4.95;;;10.10;99.90;;;;;;5097275;28;20039;-73
2023/12/17 04:29:20;;;;;;;12.65;4.18;;;10.10;99.90;;;;;;5130667;27;20039;-73
2023/12/17 04:31:46;;;;;;;8.93;4.35;;;10.00;99.90;;;;;;5097767;28;20384;-73
2023/12/17 04:34:12;;;;;;;9.18;3.20;;;10.00;99.90;;;;;;5131083;27;20031;-73
2023/12/17 04:36:38;;;;;;;8.40;3.53;;;10.00;99.90;;;;;;5115327;28;20081;-73
2023/12/17 04:39:04;;;;;;;9.45;3.47;;;10.20;99.90;;;;;;5098037;28;20059;-72
2023/12/17 04:41:30;;;;;;;9.48;3.72;;;10.20;99.90;;;;;;5114746;27;20479;-73
2023/12/17 04:43:55;;;;;;;8.30;3.00;;;10.10;99.90;;;;;;5148071;27;20479;-72
2023/12/17 04:46:22;;;;;;;12.13;4.68;;;10.10;99.90;;;;;;5131509;27;20039;-73
2023/12/17 04:48:47;;;;;;;9.38;3.13;;;10.00;99.90;;;;;;5149310;27;20551;-73
2023/12/17 04:51:13;;;;;;;11.93;4.22;;;10.10;99.90;;;;;;5131096;27;20123;-73
2023/12/17 04:53:39;;;;;;;9.77;4.20;;;10.10;99.90;;;;;;5093786;28;20160;-73
2023/12/17 04:56:04;;;;;;;10.07;4.25;;;10.10;99.90;;;;;;5095712;28;20039;-73
2023/12/17 04:58:30;;;;;;;9.65;3.90;;;10.10;99.90;;;;;;5131775;27;20048;-73
2023/12/17 05:00:59;;;;;;;9.80;4.60;;;10.00;99.90;;;;;;5130783;27;20084;-73
2023/12/17 05:03:28;;;;;;;9.57;4.43;;;10.00;99.90;;;;;;5149387;27;20505;-73
2023/12/17 05:05:53;;;;;;;10.43;4.22;;;10.00;99.90;;;;;;5146636;27;20039;-73
2023/12/17 05:08:19;;;;;;;8.13;3.25;;;10.10;99.90;;;;;;5114642;28;20035;-73
2023/12/17 05:10:46;;;;;;;10.25;4.13;;;10.10;99.90;;;;;;5113850;28;20039;-73
2023/12/17 05:13:12;;;;;;;13.85;4.45;;;10.10;99.90;;;;;;5131680;27;20052;-73
2023/12/17 05:15:37;;;;;;;9.52;5.07;;;10.10;99.90;;;;;;5147683;27;20422;-73
2023/12/17 05:18:03;;;;;;;11.05;4.88;;;10.00;99.90;;;;;;5114598;28;20039;-73
2023/12/17 05:20:29;;;;;;;15.10;4.75;;;10.10;99.90;;;;;;5096438;27;20069;-73
2023/12/17 05:22:54;;;;;;;7.85;4.25;;;10.10;99.90;;;;;;5148821;27;20164;-73
2023/12/17 05:25:21;;;;;;;8.27;3.15;;;10.10;99.90;;;;;;5114501;28;20498;-73
2023/12/17 05:27:47;;;;;;;12.30;3.60;;;10.10;99.90;;;;;;5111641;27;20416;-72
2023/12/17 05:30:13;;;;;;;6.32;3.00;;;10.20;99.90;;;;;;5148890;27;20046;-72
2023/12/17 05:32:39;;;;;;;12.45;3.70;;;10.10;99.90;;;;;;5096515;28;20511;-73
2023/12/17 05:35:06;;;;;;;6.70;2.35;;;10.10;99.90;;;;;;5130925;27;20048;-73
2023/12/17 05:37:31;;;;;;;10.30;4.00;;;10.20;99.90;;;;;;5112005;28;20035;-73
2023/12/17 05:39:57;;;;;;;5.80;2.40;;;10.30;99.90;;;;;;5113304;28;20407;-73
2023/12/17 05:42:23;;;;;;;6.32;2.47;;;10.30;99.90;;;;;;5096455;28;20067;-73
2023/12/17 05:44:49;;;;;;;8.90;3.25;;;10.20;99.90;;;;;;5147688;27;20039;-73
2023/12/17 05:47:15;;;;;;;10.05;3.50;;;10.20;99.90;;;;;;5147283;27;20142;-73
2023/12/17 05:49:40;;;;;;;6.63;2.03;;;10.20;99.90;;;;;;5096920;28;20138;-73
2023/12/17 05:52:08;;;;;;;7.22;2.80;;;10.10;99.90;;;;;;5096246;28;20048;-73
2023/12/17 05:54:33;;;;;;;8.98;2.78;;;10.10;99.90;;;;;;5146701;27;20092;-73
2023/12/17 05:57:00;;;;;;;6.50;3.00;;;10.10;99.90;;;;;;5095548;28;20059;-73
2023/12/17 05:59:25;;;;;;;10.10;3.85;;;10.20;99.90;;;;;;5112740;28;20383;-73
2023/12/17 06:01:51;;;;;;;4.82;2.05;;;10.00;99.90;;;;;;5095836;28;20050;-73
2023/12/17 06:04:17;;;;;;;9.63;3.75;;;9.90;99.90;;;;;;5147720;27;20122;-73
2023/12/17 06:06:42;;;;;;;6.85;2.58;;;10.00;99.90;;;;;;5113575;28;20519;-73
2023/12/17 06:09:08;;;;;;;6.93;3.17;;;10.00;99.90;;;;;;5129272;27;20088;-73
2023/12/17 06:11:34;;;;;;;7.35;3.45;;;9.90;99.90;;;;;;5095715;28;20039;-73
2023/12/17 06:14:00;;;;;;;12.27;3.90;;;9.80;99.90;;;;;;5113478;28;20110;-73
2023/12/17 06:16:25;;;;;;;7.82;3.55;;;9.90;99.90;;;;;;5130460;27;20102;-73
2023/12/17 06:18:52;;;;;;;9.25;4.00;;;9.90;99.90;;;;;;5095267;28;20052;-73
2023/12/17 06:21:26;;;;;;;8.65;3.47;;;9.80;99.90;;;;;;5094344;28;20084;-73
2023/12/17 06:23:58;;;;;;;6.15;3.20;;;9.80;99.90;;;;;;5113067;28;20084;-73
2023/12/17 06:26:24;;;;;;;8.32;2.58;;;9.90;99.90;;;;;;5112332;28;20035;-73
2023/12/17 06:28:50;;;;;;;7.60;2.88;;;9.90;99.90;;;;;;5130132;27;20083;-72
2023/12/17 06:31:16;;;;;;;9.27;2.35;;;9.90;99.90;;;;;;5094189;28;20107;-73
2023/12/17 06:33:42;;;;;;;8.00;1.88;;;9.80;99.90;;;;;;5112832;28;20545;-73
2023/12/17 06:36:08;;;;;;;7.47;2.65;;;9.80;99.90;;;;;;5129253;27;20035;-73
2023/12/17 06:38:33;;;;;;;6.97;2.63;;;9.80;99.90;;;;;;5146292;27;20047;-74
2023/12/17 06:40:59;;;;;;;10.80;2.83;;;9.80;99.90;;;;;;5128682;27;20047;-73
2023/12/17 06:43:25;;;;;;;9.25;2.55;;;9.90;99.90;;;;;;5095786;28;20036;-73
2023/12/17 06:45:50;;;;;;;5.90;2.42;;;9.80;99.90;;;;;;5094340;28;20035;-73
2023/12/17 06:48:16;;;;;;;9.60;2.92;;;9.80;99.90;;;;;;5146178;27;20028;-73
2023/12/17 06:50:42;;;;;;;3.20;1.60;;;9.80;99.90;;;;;;5128467;27;20044;-73
2023/12/17 06:53:07;;;;;;;4.35;1.90;;;9.90;99.90;;;;;;5112619;28;20514;-73
2023/12/17 06:55:33;;;;;;;8.48;2.80;;;9.90;99.90;;;;;;5095555;28;20480;-73
2023/12/17 06:57:59;;;;;;;5.18;1.70;;;10.00;99.90;;;;;;5110889;28;20062;-73
2023/12/17 07:00:24;;;;;;;7.40;2.63;;;9.90;99.90;;;;;;5129552;27;20082;-73
2023/12/17 07:02:50;;;;;;;4.18;1.65;;;9.90;99.90;;;;;;5145527;27;20082;-73
2023/12/17 07:05:16;;;;;;;6.40;2.35;;;9.90;99.90;;;;;;5094610;28;20039;-73
2023/12/17 07:07:47;;;;;;;11.32;3.65;;;9.90;99.90;;;;;;5091927;28;20036;-73
2023/12/17 07:10:12;;;;;;;3.40;1.30;;;10.00;99.90;;;;;;5125961;27;20122;-73
2023/12/17 07:12:38;;;;;;;8.30;3.15;;;9.90;99.90;;;;;;5127785;27;20131;-73
2023/12/17 07:15:04;;;;;;;6.30;3.08;;;9.80;99.90;;;;;;5112209;28;20075;-73
2023/12/17 07:17:30;;;;;;;5.50;2.67;;;9.90;99.90;;;;;;5096661;28;20050;-72
2023/12/17 07:19:55;;;;;;;6.82;2.63;;;9.80;99.90;;;;;;5145644;27;20032;-73
2023/12/17 07:22:22;;;;;;;7.22;2.85;;;10.00;99.90;;;;;;5128366;27;20035;-73
2023/12/17 07:24:51;;;;;;;11.20;4.07;;;9.90;99.90;;;;;;5129297;28;20047;-73
2023/12/17 07:27:17;;;;;;;8.68;3.50;;;10.00;99.90;;;;;;5128708;27;20036;-73
2023/12/17 07:29:43;;;;;;;10.88;3.47;;;9.90;99.90;;;;;;5096483;28;20047;-73
2023/12/17 07:32:08;;;;;;;13.45;4.00;;;9.90;99.90;;;;;;5111094;28;20507;-73
2023/12/17 07:34:34;;;;;;;9.05;3.60;;;9.80;99.90;;;;;;5093521;28;20119;-73
2023/12/17 07:37:00;;;;;;;10.93;3.63;;;9.90;99.90;;;;;;5094478;28;20514;-73
2023/12/17 07:39:26;;;;;;;6.55;2.67;;;9.90;99.90;;;;;;5145612;27;20035;-73
2023/12/17 07:41:51;;;;;;;10.02;4.28;;;9.90;99.90;;;;;;5145654;27;20043;-73
2023/12/17 07:44:17;;;;;;;10.13;3.20;;;9.90;99.90;;;;;;5110471;28;20071;-73
2023/12/17 07:46:42;;;;;;;8.60;3.92;;;9.90;99.90;;;;;;5139971;27;20403;-72
2023/12/17 07:49:08;;;;;;;9.23;4.18;;;10.00;99.90;;;;;;5118418;27;20135;-73
2023/12/17 07:51:34;;;;;;;10.55;4.95;;;10.00;99.90;;;;;;5118295;27;20040;-73
2023/12/17 07:54:00;;;;;;;10.85;5.22;;;9.90;99.90;;;;;;5094923;28;20039;-72
2023/12/17 07:56:26;;;;;;;10.73;4.57;;;9.80;99.90;;;;;;5091700;28;20480;-73
2023/12/17 07:58:52;;;;;;;12.98;5.55;;;9.80;99.90;;;;;;5100595;27;20048;-73
2023/12/17 08:01:30;;;;;;;10.18;5.10;;;9.70;99.90;;;;;;5107617;27;20454;-73
2023/12/17 08:03:57;;;;;;;9.02;3.83;;;9.60;99.90;;;;;;5066902;28;20067;-72
2023/12/17 08:06:24;;;;;;;10.50;4.75;;;9.80;99.90;;;;;;5068024;28;20085;-73
2023/12/17 08:08:51;;;;;;;9.80;4.30;;;9.70;99.90;;;;;;5108453;27;20036;-73
2023/12/17 08:11:16;;;;;;;7.78;3.78;;;9.80;99.90;;;;;;5113635;28;20054;-73
2023/12/17 08:13:43;;;;;;;9.27;4.63;;;9.90;99.90;;;;;;5114517;27;20027;-73
2023/12/17 08:16:09;;;;;;;12.63;6.05;;;9.90;99.90;;;;;;5090751;28;20039;-73
2023/12/17 08:18:35;;;;;;;11.77;5.38;;;10.00;99.90;;;;;;5082365;27;20042;-73
2023/12/17 08:21:01;;;;;;;13.75;6.20;;;9.90;99.90;;;;;;5119963;27;20685;-72
2023/12/17 08:23:27;;;;;;;7.95;4.00;;;9.90;99.90;;;;;;5087437;27;20101;-72
2023/12/17 08:25:53;;;;;;;10.95;4.38;;;9.80;99.90;;;;;;5100167;27;20391;-72
2023/12/17 08:28:21;;;;;;;11.93;5.53;;;10.00;99.90;;;;;;5101244;27;20597;-73
2023/12/17 08:30:47;;;;;;;10.10;4.93;;;9.90;99.90;;;;;;5101365;27;20038;-72
2023/12/17 08:33:13;;;;;;;13.65;5.20;;;9.80;99.90;;;;;;5127635;27;20768;-73
2023/12/17 08:35:41;;;;;;;10.52;4.75;;;9.70;99.90;;;;;;5125474;27;20118;-73
2023/12/17 08:38:07;;;;;;;11.85;4.53;;;9.70;99.90;;;;;;5084184;27;20051;-72
2023/12/17 08:40:33;;;;;;;10.63;4.03;;;9.70;99.90;;;;;;5108245;27;20035;-72
2023/12/17 08:43:03;;;;;;;9.68;4.13;;;9.80;99.90;;;;;;5070205;27;20039;-73
2023/12/17 08:45:29;;;;;;;8.02;3.88;;;9.80;99.90;;;;;;5088486;27;20036;-72
2023/12/17 08:47:54;;;;;;;6.50;3.10;;;9.70;99.90;;;;;;5128016;27;20038;-72
2023/12/17 08:50:20;;;;;;;10.57;5.60;;;9.80;99.90;;;;;;5115922;27;20063;-73
2023/12/17 08:52:46;;;;;;;6.93;2.40;;;9.80;99.90;;;;;;5111914;27;20043;-72
2023/12/17 08:55:11;;;;;;;10.50;4.10;;;9.90;99.90;;;;;;5129215;27;20036;-73
2023/12/17 08:57:37;;;;;;;8.98;4.13;;;9.80;99.90;;;;;;5121418;27;20168;-72
2023/12/17 09:00:04;;;;;;;9.52;3.60;;;9.90;99.90;;;;;;5097772;27;20040;-72
2023/12/17 09:02:31;;;;;;;10.25;3.65;;;9.80;99.90;;;;;;5136635;27;20031;-73
2023/12/17 09:04:57;;;;;;;14.18;5.13;;;9.80;99.90;;;;;;5073545;27;20044;-72
2023/12/17 09:07:23;;;;;;;9.48;3.92;;;9.80;99.90;;;;;;5092997;27;20043;-73
2023/12/17 09:09:49;;;;;;;9.70;4.35;;;9.80;99.90;;;;;;5088785;27;20039;-73
2023/12/17 09:12:16;;;;;;;11.07;4.38;;;9.80;99.90;;;;;;5098749;27;20090;-73
2023/12/17 09:14:41;;;;;;;12.38;4.47;;;9.90;99.90;;;;;;5141159;27;20074;-73
2023/12/17 09:17:07;;;;;;;11.95;4.20;;;9.90;99.90;;;;;;5123047;27;20097;-73
2023/12/17 09:19:33;;;;;;;10.20;5.47;;;9.90;99.90;;;;;;5116843;27;20048;-72
2023/12/17 09:21:59;;;;;;;9.95;4.53;;;9.80;99.90;;;;;;5089018;27;20387;-73
2023/12/17 09:24:25;;;;;;;16.30;6.22;;;10.00;99.90;;;;;;5117026;27;20031;-73
2023/12/17 09:26:50;;;;;;;13.45;6.38;;;9.90;99.90;;;;;;5101675;27;20120;-73
2023/12/17 09:29:16;;;;;;;13.52;4.32;;;9.90;99.90;;;;;;5110252;27;20043;-73
2023/12/17 09:31:42;;;;;;;12.25;5.93;;;9.90;99.90;;;;;;5125076;27;20126;-73
2023/12/17 09:34:07;;;;;;;9.05;5.57;;;9.90;99.90;;;;;;5077614;27;20129;-73
2023/12/17 09:36:33;;;;;;;10.90;5.00;;;10.00;99.90;;;;;;5135145;27;20035;-73
2023/12/17 09:38:59;;;;;;;14.70;6.85;;;10.00;99.90;;;;;;5092178;27;20399;-74
2023/12/17 09:41:25;;;;;;;16.52;7.32;;;9.90;99.90;;;;;;5111652;27;20740;-73
2023/12/17 09:43:51;;;;;;;17.55;7.90;;;10.00;99.90;;;;;;5124467;27;20066;-73
2023/12/17 09:46:17;;;;;;;15.18;8.23;;;9.90;99.90;;;;;;5089842;27;20487;-73
2023/12/17 09:48:43;;;;;;;15.13;5.70;;;9.90;99.90;;;;;;5121550;27;20035;-73
2023/12/17 09:51:10;;;;;;;13.82;7.18;;;10.10;99.90;;;;;;5109071;27;20051;-73
2023/12/17 09:53:35;;;;;;;14.13;7.20;;;10.10;99.90;;;;;;5083280;27;20083;-73
2023/12/17 09:56:01;;;;;;;15.95;7.53;;;10.00;99.90;;;;;;5093264;27;20183;-73
2023/12/17 09:58:27;;;;;;;13.10;6.78;;;10.00;99.90;;;;;;5132652;27;20131;-73
2023/12/17 10:00:53;;;;;;;14.70;8.10;;;10.00;99.90;;;;;;5094941;27;20054;-73
2023/12/17 10:03:19;;;;;;;10.57;5.05;;;9.90;99.90;;;;;;5125226;27;20039;-73
2023/12/17 10:05:50;;;;;;;14.63;7.57;;;10.00;99.90;;;;;;5088188;27;20509;-73
2023/12/17 10:08:16;;;;;;;15.50;8.23;;;10.00;99.90;;;;;;5132588;27;20031;-73
2023/12/17 10:10:41;;;;;;;16.63;6.32;;;9.90;99.90;;;;;;5102860;27;20031;-73
2023/12/17 10:13:08;;;;;;;16.70;9.25;;;10.00;99.90;;;;;;5095593;28;20039;-73
2023/12/17 10:15:37;;;;;;;14.32;7.32;;;10.10;99.90;;;;;;5095426;28;20080;-73
2023/12/17 10:18:04;;;;;;;14.32;7.15;;;10.10;99.90;;;;;;5100965;28;20035;-73
2023/12/17 10:20:30;;;;;;;16.27;9.02;;;10.10;99.90;;;;;;5078022;28;20501;-72
2023/12/17 10:23:03;;;;;;;12.35;6.70;;;10.20;99.90;;;;;;5087598;27;20043;-73
2023/12/17 10:25:28;;;;;;;18.15;10.45;;;10.10;99.90;;;;;;5104352;27;20392;-73
2023/12/17 10:27:59;;;;;;;13.13;6.80;;;10.10;99.90;;;;;;5080807;27;20044;-72
2023/12/17 10:30:34;;;;;;;17.27;9.52;;;10.10;99.90;;;;;;5105854;27;20408;-73
2023/12/17 10:33:01;;;;;;;16.50;8.02;;;10.10;99.90;;;;;;5116356;27;20460;-73
2023/12/17 10:35:29;;;;;;;20.08;8.98;;;10.00;99.90;;;;;;5064436;28;20043;-73
2023/12/17 10:38:00;;;;;;;21.05;13.10;;;10.10;99.90;;;;;;5119255;27;20122;-72
2023/12/17 10:40:27;;;;;;;19.92;8.63;;;10.00;99.90;;;;;;5070834;28;20040;-73
2023/12/17 10:42:56;;;;;;;27.70;10.55;;;10.20;99.90;;;;;;5064174;28;20637;-73
2023/12/17 10:45:22;;;;;;;20.90;11.98;;;10.10;99.90;;;;;;5109890;27;20543;-73
2023/12/17 10:47:52;;;;;;;21.02;11.13;;;10.10;99.90;;;;;;5070100;27;20080;-73
2023/12/17 10:50:19;;;;;;;18.15;6.63;;;10.10;99.90;;;;;;5104373;27;20612;-73
2023/12/17 10:52:48;;;;;;;14.63;6.88;;;10.20;99.90;;;;;;5102268;27;20052;-73
2023/12/17 10:55:14;;;;;;;21.65;9.70;;;10.20;99.90;;;;;;5067051;28;20579;-73
2023/12/17 10:57:54;;;;;;;16.63;8.70;;;10.20;99.90;;;;;;5107388;27;20130;-73
2023/12/17 11:00:23;;;;;;;19.92;9.43;;;10.20;99.90;;;;;;5133277;27;20464;-73
2023/12/17 11:02:52;;;;;;;22.80;13.27;;;10.20;99.90;;;;;;5108251;28;20036;-73
2023/12/17 11:05:17;;;;;;;20.63;11.20;;;10.20;99.90;;;;;;5122137;27;20040;-73
2023/12/17 11:07:43;;;;;;;13.65;6.10;;;10.20;99.90;;;;;;5127379;27;20046;-72
2023/12/17 11:10:12;;;;;;;16.77;10.60;;;10.20;99.90;;;;;;5089531;28;20048;-73
2023/12/17 11:12:42;;;;;;;15.32;8.23;;;10.20;99.90;;;;;;5119027;27;20039;-73
2023/12/17 11:15:08;;;;;;;15.18;8.60;;;10.20;99.90;;;;;;5111322;28;20118;-73
2023/12/17 11:17:34;;;;;;;14.57;7.78;;;10.30;99.90;;;;;;5093132;28;20044;-73
2023/12/17 11:20:01;;;;;;;16.10;9.63;;;10.20;99.90;;;;;;5141975;27;20036;-72
2023/12/17 11:22:28;;;;;;;15.35;9.15;;;10.30;99.90;;;;;;5086042;28;20027;-73
2023/12/17 11:24:55;;;;;;;16.77;9.82;;;10.10;99.90;;;;;;5107382;28;20032;-73
2023/12/17 11:27:22;;;;;;;14.45;7.97;;;10.10;99.90;;;;;;5105485;28;20047;-73
2023/12/17 11:29:50;;;;;;;20.40;11.05;;;10.10;99.90;;;;;;5091817;28;20044;-72
2023/12/17 11:32:18;;;;;;;15.82;8.40;;;10.10;99.90;;;;;;5112954;28;20048;-72
2023/12/17 11:34:50;;;;;;;15.75;8.18;;;10.10;99.90;;;;;;5114641;28;20047;-73
2023/12/17 11:37:24;;;;;;;18.58;10.27;;;10.10;99.90;;;;;;5129143;27;20158;-73
2023/12/17 11:39:51;;;;;;;14.25;7.82;;;10.10;99.90;;;;;;5118364;27;20042;-73
2023/12/17 11:42:18;;;;;;;12.18;8.50;;;10.10;99.90;;;;;;5110256;28;20032;-72
2023/12/17 11:44:45;;;;;;;14.30;8.30;;;10.10;99.90;;;;;;5089145;28;20173;-73
2023/12/17 11:47:12;;;;;;;16.02;8.07;;;10.10;99.90;;;;;;5147608;27;20560;-73
2023/12/17 11:49:38;;;;;;;10.48;5.75;;;10.00;99.90;;;;;;5130792;27;20522;-73
2023/12/17 11:52:15;;;;;;;9.38;4.38;;;10.10;99.90;;;;;;5115399;28;20032;-73
2023/12/17 11:54:42;;;;;;;11.27;5.53;;;10.30;99.90;;;;;;5142731;27;20047;-73
2023/12/17 11:57:22;;;;;;;14.48;7.75;;;10.20;99.90;;;;;;5112147;28;20495;-81
2023/12/17 11:59:48;;;;;;;11.35;5.40;;;10.20;99.90;;;;;;5098138;28;20055;-80
2023/12/17 12:02:19;;;;;;;12.48;6.45;;;10.20;99.90;;;;;;5090270;28;20024;-73
2023/12/17 12:04:45;;;;;;;13.13;6.32;;;10.20;99.90;;;;;;5114337;28;20043;-73
2023/12/17 12:07:18;;;;;;;13.43;7.60;;;10.20;99.90;;;;;;5096385;28;20088;-74
2023/12/17 12:09:45;;;;;;;16.17;8.63;;;10.20;99.90;;;;;;5132890;27;20122;-73
2023/12/17 12:12:18;;;;;;;10.25;5.40;;;10.00;99.90;;;;;;5128527;27;20039;-73
2023/12/17 12:14:45;;;;;;;12.65;8.02;;;10.00;99.90;;;;;;5108269;28;20040;-74
2023/12/17 12:17:40;;;;;;;15.52;7.28;;;9.90;99.90;;;;;;5112213;27;20039;-73
2023/12/17 12:20:12;;;;;;;14.75;7.60;;;10.00;99.90;;;;;;5102947;28;20040;-73
2023/12/17 12:22:41;;;;;;;8.65;5.35;;;10.00;99.90;;;;;;5114484;28;20429;-73
2023/12/17 12:25:07;;;;;;;11.18;7.35;;;10.00;99.90;;;;;;5112302;28;20059;-73
2023/12/17 12:27:33;;;;;;;12.85;8.15;;;10.00;99.90;;;;;;5096533;28;20432;-74
2023/12/17 12:29:59;;;;;;;16.40;7.75;;;9.90;99.90;;;;;;5096343;28;20074;-73
2023/12/17 12:32:29;;;;;;;15.65;8.30;;;10.00;99.90;;;;;;5096657;28;20491;-73
2023/12/17 12:34:55;;;;;;;11.20;6.40;;;10.10;99.90;;;;;;5110449;28;20529;-73
2023/12/17 12:37:35;;;;;;;13.70;7.05;;;10.10;99.90;;;;;;5111130;28;20043;-73
2023/12/17 12:40:02;;;;;;;16.48;7.25;;;10.00;99.90;;;;;;5107554;27;20096;-74